Terminal Aerodrome Forecast
Issued by NWS

Home | Current Version | Previous Version | Text Only | Print | Product List | Glossary On
Versions: 1 2 3 4 5 6 7 8 9 10 11 12 13 14 15 16 17
000
FTAK31 PAJN 211700
TAFAKT
TAF
PAKT 211731Z 2118/2218 16008KT P6SM -SHRA SCT010 BKN025 OVC035
      TEMPO 2118/2122 18010KT 4SM SHRA BR BKN010 OVC025
     FM212200 14008KT 6SM -SHRA BKN025 BKN035
     FM220900 14008KT P6SM -SHRA BKN025 BKN035
      AMD LTD TO CLD VIS AND WIND 2206/2215=

USA.gov is the U.S. government's official web portal to all federal, state and local government web resources and services.